createdAt,value
2023-03-06T00:00:20.832Z,28.64
2023-03-06T00:01:20.856Z,28.70
2023-03-06T00:02:20.913Z,28.65
2023-03-06T00:03:20.911Z,28.66
2023-03-06T00:04:20.876Z,28.65
2023-03-06T00:05:20.880Z,28.63
2023-03-06T00:06:20.945Z,28.59
2023-03-06T00:07:20.889Z,28.59
2023-03-06T00:08:20.915Z,28.62
2023-03-06T00:09:20.927Z,28.63
2023-03-06T00:10:20.939Z,28.59
2023-03-06T00:11:20.950Z,28.60
2023-03-06T00:12:20.974Z,28.59
2023-03-06T00:13:21.032Z,28.62
2023-03-06T00:14:21.001Z,28.61
2023-03-06T00:15:21.011Z,28.63
2023-03-06T00:16:21.048Z,28.65
2023-03-06T00:17:21.028Z,28.62
2023-03-06T00:18:21.053Z,28.63
2023-03-06T00:19:21.066Z,28.66
2023-03-06T00:20:21.085Z,28.61
2023-03-06T00:21:21.087Z,28.62
2023-03-06T00:22:21.099Z,28.65
2023-03-06T00:23:21.105Z,28.55
2023-03-06T00:24:21.120Z,28.62
2023-03-06T00:25:21.321Z,28.61
2023-03-06T00:26:21.802Z,28.61
2023-03-06T00:27:21.165Z,28.61
2023-03-06T00:28:21.265Z,28.54
2023-03-06T00:29:21.195Z,28.60
2023-03-06T00:30:21.203Z,28.63
2023-03-06T00:31:21.292Z,28.59
2023-03-06T00:32:21.257Z,28.56
2023-03-06T00:33:21.236Z,28.62
2023-03-06T00:34:21.266Z,28.61
2023-03-06T00:35:21.325Z,28.58
2023-03-06T00:36:21.267Z,28.55
2023-03-06T00:37:21.285Z,28.59
2023-03-06T00:38:21.291Z,28.59
2023-03-06T00:39:21.302Z,28.63
2023-03-06T00:40:21.342Z,28.61
2023-03-06T00:41:21.327Z,28.55
2023-03-06T00:42:22.310Z,28.56
2023-03-06T00:43:21.384Z,28.56
2023-03-06T00:44:21.373Z,28.62
2023-03-06T00:45:21.412Z,28.56
2023-03-06T00:46:21.408Z,28.52
2023-03-06T00:47:21.414Z,28.56
2023-03-06T00:49:21.531Z,28.56
2023-03-06T00:50:21.474Z,28.54
2023-03-06T00:51:21.471Z,28.58
2023-03-06T00:52:21.482Z,28.51
2023-03-06T00:53:21.502Z,28.55
2023-03-06T00:54:21.492Z,28.55
2023-03-06T00:55:21.524Z,28.56
2023-03-06T01:14:21.778Z,28.54
2023-03-06T01:15:21.780Z,28.51
2023-03-06T01:16:21.957Z,28.49
2023-03-06T01:17:21.812Z,28.49
2023-03-06T01:18:21.826Z,28.51
2023-03-06T01:19:21.858Z,28.54
2023-03-06T01:20:21.940Z,28.52
2023-03-06T01:21:21.868Z,28.50
2023-03-06T01:22:21.884Z,28.45
2023-03-06T01:23:21.897Z,28.47
2023-03-06T01:24:21.903Z,28.45
2023-03-06T01:25:21.903Z,28.44
2023-03-06T01:26:21.932Z,28.45
2023-03-06T01:27:21.936Z,28.39
2023-03-06T01:28:21.943Z,28.40
2023-03-06T01:29:21.953Z,28.40
2023-03-06T01:30:21.948Z,28.36
2023-03-06T01:31:22.004Z,28.36
2023-03-06T01:32:22.034Z,28.38
2023-03-06T01:33:21.969Z,28.37
2023-03-06T01:34:21.972Z,28.32
2023-03-06T01:35:21.999Z,28.32
2023-03-06T01:36:21.983Z,28.31
2023-03-06T01:37:21.995Z,28.31
2023-03-06T01:38:22.004Z,28.30
2023-03-06T01:39:22.008Z,28.27
2023-03-06T01:40:21.990Z,28.27
2023-03-06T01:41:22.005Z,28.23
2023-03-06T01:42:22.008Z,28.23
2023-03-06T01:43:21.993Z,28.20
2023-03-06T01:44:22.011Z,28.25
2023-03-06T01:45:22.008Z,28.24
2023-03-06T01:46:22.016Z,28.18
2023-03-06T01:47:22.020Z,28.20
2023-03-06T01:48:22.032Z,28.22
2023-03-06T01:49:22.061Z,28.17
2023-03-06T01:50:22.073Z,28.16
2023-03-06T01:51:22.098Z,28.16
2023-03-06T01:52:22.137Z,28.17
2023-03-06T01:53:22.294Z,28.16
2023-03-06T01:54:22.219Z,28.10
2023-03-06T01:55:22.258Z,28.14
2023-03-06T01:56:22.288Z,28.14
2023-03-06T01:57:22.330Z,28.13
2023-03-06T01:58:22.346Z,28.14
2023-03-06T01:59:22.379Z,28.14
2023-03-06T02:00:22.435Z,28.13
2023-03-06T02:01:22.469Z,28.09
2023-03-06T02:02:22.559Z,28.06
2023-03-06T02:03:22.552Z,28.08
2023-03-06T02:04:22.595Z,28.14
2023-03-06T02:05:22.618Z,28.07
2023-03-06T02:06:22.639Z,28.09
2023-03-06T02:07:22.851Z,28.13
2023-03-06T02:08:22.684Z,28.08
2023-03-06T02:09:22.731Z,28.09
2023-03-06T02:10:22.783Z,28.09
2023-03-06T02:11:22.833Z,28.06
2023-03-06T02:12:22.842Z,28.11
2023-03-06T02:13:22.873Z,28.10
2023-03-06T02:14:22.899Z,28.09
2023-03-06T02:15:23.841Z,28.10
2023-03-06T02:16:23.115Z,28.12
2023-03-06T02:17:22.986Z,28.09
2023-03-06T02:18:23.030Z,28.08
2023-03-06T02:19:23.096Z,28.05
2023-03-06T02:20:23.117Z,28.13
2023-03-06T02:21:23.138Z,28.08
2023-03-06T02:22:23.147Z,28.03
2023-03-06T02:23:23.165Z,28.08
2023-03-06T02:24:23.181Z,28.07
2023-03-06T02:25:23.209Z,28.08
2023-03-06T02:26:23.217Z,28.05
2023-03-06T02:27:23.234Z,28.08
2023-03-06T02:28:23.247Z,28.01
2023-03-06T02:29:23.256Z,28.07
2023-03-06T02:30:23.253Z,28.12
2023-03-06T02:31:23.249Z,28.07
2023-03-06T02:32:23.313Z,28.06
2023-03-06T02:33:23.267Z,28.09
2023-03-06T02:34:23.301Z,28.06
2023-03-06T02:35:23.388Z,28.09
2023-03-06T02:36:23.401Z,28.02
2023-03-06T02:37:23.418Z,28.07
2023-03-06T02:38:23.871Z,28.07
2023-03-06T02:39:23.485Z,28.05
2023-03-06T02:40:23.539Z,28.06
2023-03-06T02:41:23.707Z,28.09
2023-03-06T02:42:23.629Z,28.07
2023-03-06T02:43:23.720Z,28.03
2023-03-06T02:44:23.693Z,28.05
2023-03-06T02:45:23.743Z,28.07
2023-03-06T02:46:23.841Z,28.10
2023-03-06T02:47:23.850Z,28.06
2023-03-06T02:48:23.879Z,28.03
2023-03-06T02:49:26.129Z,28.11
2023-03-06T02:50:24.024Z,28.07
2023-03-06T02:51:24.085Z,28.03
2023-03-06T02:52:24.111Z,28.02
2023-03-06T02:53:24.141Z,28.05
2023-03-06T02:54:24.854Z,28.02
2023-03-06T02:55:24.170Z,28.06
2023-03-06T02:56:24.170Z,28.05
2023-03-06T02:57:24.174Z,28.03
2023-03-06T02:58:24.183Z,28.05
2023-03-06T02:59:24.188Z,28.03
2023-03-06T03:00:24.233Z,28.10
2023-03-06T03:01:24.296Z,28.03
2023-03-06T03:02:24.295Z,28.03
2023-03-06T03:03:24.326Z,28.07
2023-03-06T03:04:24.402Z,28.09
2023-03-06T03:05:24.399Z,28.05
2023-03-06T03:06:24.422Z,28.07
2023-03-06T03:07:24.429Z,28.02
2023-03-06T03:08:24.460Z,28.09
2023-03-06T03:09:24.502Z,28.02
2023-03-06T03:10:24.530Z,28.00
2023-03-06T03:11:24.539Z,28.03
2023-03-06T03:12:24.550Z,28.04
2023-03-06T03:13:24.557Z,28.05
2023-03-06T03:14:24.554Z,28.07
2023-03-06T03:15:24.578Z,28.02
2023-03-06T03:16:24.589Z,28.00
2023-03-06T03:17:24.600Z,28.02
2023-03-06T03:18:24.588Z,28.09
2023-03-06T03:19:24.607Z,28.00
2023-03-06T03:20:24.882Z,28.02
2023-03-06T03:21:24.611Z,27.99
2023-03-06T03:22:24.628Z,28.00
2023-03-06T06:42:34.601Z,27.52
2023-03-06T06:43:28.012Z,27.50
2023-03-06T07:02:27.954Z,27.42
2023-03-06T07:25:27.946Z,27.44
2023-03-06T07:34:27.961Z,27.43
2023-03-06T07:38:28.018Z,27.43
2023-03-06T07:43:28.029Z,27.43
2023-03-06T08:23:27.967Z,28.24
2023-03-06T08:27:28.035Z,28.90
2023-03-06T08:32:27.770Z,30.10
2023-03-06T08:33:27.868Z,30.31
2023-03-06T08:34:27.767Z,30.47
2023-03-06T08:35:29.490Z,30.62
2023-03-06T08:36:27.937Z,30.78
2023-03-06T08:37:27.909Z,31.00
2023-03-06T08:38:27.904Z,31.18
2023-03-06T08:39:27.928Z,31.39
2023-03-06T08:40:27.964Z,31.62
2023-03-06T08:41:28.002Z,31.74
2023-03-06T08:42:28.008Z,31.99
2023-03-06T08:43:28.043Z,32.13
2023-03-06T08:44:28.481Z,32.36
2023-03-06T08:45:28.081Z,32.46
2023-03-06T08:46:28.093Z,32.55
2023-03-06T08:47:28.098Z,32.61
2023-03-06T08:48:28.116Z,32.70
2023-03-06T08:49:28.185Z,32.82
2023-03-06T08:50:28.129Z,32.86
2023-03-06T08:51:28.178Z,33.04
2023-03-06T08:52:28.169Z,33.13
2023-03-06T08:53:42.062Z,33.16
2023-03-06T08:54:29.157Z,33.34
2023-03-06T08:55:28.188Z,33.50
2023-03-06T08:56:29.042Z,33.59
2023-03-06T08:57:28.132Z,33.70
2023-03-06T08:58:28.205Z,33.87
2023-03-06T08:59:28.127Z,34.05
2023-03-06T09:00:28.118Z,34.11
2023-03-06T09:01:28.209Z,34.17
2023-03-06T09:02:28.132Z,34.30
2023-03-06T09:03:28.085Z,34.32
2023-03-06T09:04:28.073Z,34.45
2023-03-06T09:05:28.076Z,34.62
2023-03-06T09:06:28.125Z,34.63
2023-03-06T09:07:28.051Z,34.79
2023-03-06T09:08:28.048Z,34.92
2023-03-06T09:09:28.484Z,34.99
2023-03-06T09:10:28.079Z,35.24
2023-03-06T09:11:28.050Z,35.31
2023-03-06T09:12:29.315Z,35.27
2023-03-06T09:13:28.016Z,35.22
2023-03-06T09:14:28.011Z,35.25
2023-03-06T09:15:27.990Z,32.17
2023-03-06T09:16:28.008Z,28.84
2023-03-06T09:17:28.003Z,27.97
2023-03-06T09:18:27.980Z,27.06
2023-03-06T09:19:27.986Z,27.23
2023-03-06T09:20:28.010Z,27.93
2023-03-06T09:21:28.026Z,28.79
2023-03-06T09:22:27.993Z,29.33
2023-03-06T09:23:27.998Z,29.37
2023-03-06T09:24:28.000Z,29.67
2023-03-06T09:25:28.000Z,30.01
2023-03-06T09:26:43.467Z,30.14
2023-03-06T09:27:29.008Z,30.27
2023-03-06T09:28:28.000Z,30.48
2023-03-06T09:29:28.044Z,30.84
2023-03-06T09:30:27.994Z,31.03
2023-03-06T09:31:27.984Z,31.26
2023-03-06T09:32:28.000Z,31.50
2023-03-06T09:33:27.974Z,31.74
2023-03-06T09:34:27.966Z,31.98
2023-03-06T09:35:27.976Z,32.18
2023-03-06T09:36:27.960Z,32.44
2023-03-06T09:37:27.935Z,32.58
2023-03-06T09:38:27.935Z,32.75
2023-03-06T09:39:27.910Z,33.07
2023-03-06T09:40:27.904Z,32.90
2023-03-06T09:41:27.905Z,33.11
2023-03-06T09:42:27.913Z,33.27
2023-03-06T09:43:27.894Z,33.53
2023-03-06T09:44:27.879Z,33.73
2023-03-06T09:45:27.884Z,33.99
2023-03-06T09:46:27.905Z,34.12
2023-03-06T09:47:27.860Z,34.22
2023-03-06T09:48:27.914Z,34.36
2023-03-06T09:49:27.838Z,34.47
2023-03-06T09:50:27.836Z,34.53
2023-03-06T09:51:27.831Z,34.67
2023-03-06T09:52:27.840Z,35.01
2023-03-06T09:53:27.808Z,35.00
2023-03-06T09:54:27.798Z,35.29
2023-03-06T09:55:27.788Z,35.40
2023-03-06T09:56:27.781Z,35.53
2023-03-06T09:57:27.800Z,35.61
2023-03-06T09:58:28.500Z,35.82
2023-03-06T09:59:28.501Z,35.96
2023-03-06T10:01:27.977Z,36.28
2023-03-06T10:02:28.111Z,36.32
2023-03-06T10:03:28.187Z,36.48
2023-03-06T10:04:28.177Z,36.54
2023-03-06T10:05:28.165Z,36.56
2023-03-06T10:06:28.229Z,37.00
2023-03-06T10:07:28.275Z,37.06
2023-03-06T10:08:28.321Z,37.39
2023-03-06T10:09:28.620Z,37.36
2023-03-06T10:10:28.426Z,37.47
2023-03-06T10:11:28.477Z,37.46
2023-03-06T10:12:28.545Z,37.97
2023-03-06T10:13:28.586Z,37.71
2023-03-06T10:14:28.645Z,38.01
2023-03-06T10:15:28.766Z,38.02
2023-03-06T10:16:28.749Z,38.17
2023-03-06T10:17:28.801Z,38.30
2023-03-06T10:18:28.923Z,38.17
2023-03-06T10:19:28.897Z,37.92
2023-03-06T10:20:28.962Z,37.78
2023-03-06T10:21:28.997Z,37.65
2023-03-06T10:22:29.036Z,37.50
2023-03-06T10:23:29.129Z,37.38
2023-03-06T10:24:29.145Z,37.32
2023-03-06T10:25:29.192Z,37.26
2023-03-06T10:26:30.107Z,37.23
2023-03-06T10:27:30.017Z,37.23
2023-03-06T10:28:29.335Z,37.18
2023-03-06T10:29:29.375Z,37.11
2023-03-06T10:30:29.447Z,37.11
2023-03-06T10:31:29.456Z,37.07
2023-03-06T10:32:39.531Z,37.08
2023-03-06T10:33:30.452Z,37.03
2023-03-06T10:34:29.419Z,37.03
2023-03-06T10:35:30.773Z,36.98
2023-03-06T10:36:29.412Z,36.93
2023-03-06T10:37:30.449Z,36.94
2023-03-06T10:38:29.402Z,36.92
2023-03-06T10:39:29.385Z,36.84
2023-03-06T10:40:29.391Z,36.86
2023-03-06T10:41:30.375Z,36.79
2023-03-06T10:42:29.398Z,36.78
2023-03-06T10:43:29.353Z,36.80
2023-03-06T10:44:29.334Z,36.78
2023-03-06T10:45:35.180Z,36.73
2023-03-06T10:46:30.391Z,36.68
2023-03-06T10:47:29.313Z,36.57
2023-03-06T10:48:29.539Z,36.55
2023-03-06T10:49:29.299Z,36.51
2023-03-06T10:50:29.290Z,36.49
2023-03-06T10:51:29.290Z,36.44
2023-03-06T10:52:29.268Z,36.43
2023-03-06T10:53:29.264Z,36.38
2023-03-06T10:54:29.244Z,36.35
2023-03-06T10:55:29.238Z,36.31
2023-03-06T10:56:29.338Z,36.25
2023-03-06T10:57:30.059Z,36.28
2023-03-06T10:58:29.373Z,36.16
2023-03-06T10:59:29.363Z,36.15
2023-03-06T11:00:29.383Z,36.10
2023-03-06T11:01:29.444Z,36.04
2023-03-06T11:02:29.440Z,36.05
2023-03-06T11:03:29.493Z,35.95
2023-03-06T11:04:29.552Z,35.99
2023-03-06T11:05:29.552Z,35.93
2023-03-06T11:06:29.601Z,35.84
2023-03-06T11:07:29.656Z,35.87
2023-03-06T11:08:29.688Z,35.81
2023-03-06T11:09:29.711Z,35.77
2023-03-06T11:10:29.766Z,35.75
2023-03-06T11:11:37.561Z,35.65
2023-03-06T11:12:30.805Z,35.64
2023-03-06T11:13:29.786Z,35.57
2023-03-06T11:14:29.781Z,35.57
2023-03-06T11:15:29.831Z,35.51
2023-03-06T11:16:29.818Z,35.51
2023-03-06T11:17:29.763Z,35.46
2023-03-06T11:18:29.761Z,35.38
2023-03-06T11:20:38.416Z,35.35
2023-03-06T11:21:31.760Z,35.32
2023-03-06T11:22:29.735Z,35.30
2023-03-06T11:23:29.739Z,35.28
2023-03-06T11:24:29.648Z,35.21
2023-03-06T11:25:29.636Z,35.21
2023-03-06T11:26:29.627Z,35.19
2023-03-06T11:27:29.686Z,35.13
2023-03-06T11:28:29.689Z,35.13
2023-03-06T11:29:29.993Z,35.02
2023-03-06T11:30:29.750Z,35.01
2023-03-06T11:31:29.823Z,34.95
2023-03-06T14:09:33.287Z,32.66
2023-03-06T14:11:33.292Z,32.70
2023-03-06T14:12:33.295Z,32.71
2023-03-06T14:13:45.329Z,32.70
2023-03-06T14:14:34.275Z,32.75
2023-03-06T14:18:33.310Z,32.68
2023-03-06T14:59:34.099Z,32.69
2023-03-06T16:01:36.068Z,32.67
2023-03-06T16:27:33.631Z,41.25
2023-03-06T16:44:34.141Z,38.24
2023-03-06T16:46:33.360Z,37.99
2023-03-06T16:47:33.380Z,37.81
2023-03-06T16:48:33.434Z,37.84
2023-03-06T16:49:33.531Z,37.94
2023-03-06T16:50:33.548Z,37.74
2023-03-06T16:51:33.692Z,37.71
2023-03-06T16:52:33.658Z,37.70
2023-03-06T16:53:33.709Z,37.59
2023-03-06T16:54:33.755Z,37.39
2023-03-06T16:55:33.808Z,37.66
2023-03-06T16:56:33.870Z,37.54
2023-03-06T16:57:33.936Z,37.26
2023-03-06T16:58:34.003Z,37.20
2023-03-06T16:59:34.644Z,37.11
2023-03-06T17:00:34.099Z,37.12
2023-03-06T17:01:34.294Z,37.11
2023-03-06T17:02:34.215Z,37.02
2023-03-06T17:03:34.230Z,36.91
2023-03-06T17:04:34.272Z,36.88
2023-03-06T17:05:34.335Z,36.85
2023-03-06T17:06:34.386Z,36.74
2023-03-06T17:07:34.423Z,36.74
2023-03-06T17:08:34.462Z,36.68
2023-03-06T17:09:34.503Z,36.64
2023-03-06T17:10:34.559Z,36.64
2023-03-06T17:11:34.598Z,36.65
2023-03-06T17:12:34.640Z,36.60
2023-03-06T17:13:34.659Z,36.54
2023-03-06T17:14:34.791Z,36.58
2023-03-06T17:15:34.801Z,36.49
2023-03-06T17:16:34.823Z,36.49
2023-03-06T17:17:34.888Z,36.49
2023-03-06T18:02:36.449Z,35.84
2023-03-06T23:39:43.290Z,33.18
2023-03-06T23:52:43.309Z,33.07
2023-03-06T23:54:43.323Z,33.10
2023-03-06T23:55:43.374Z,33.07
2023-03-06T23:56:43.414Z,33.04
2023-03-06T23:57:43.464Z,33.08
2023-03-06T23:58:43.510Z,33.11
2023-03-06T23:59:43.562Z,33.04
